Time;durP1;ratioP1;P1;durP2;ratioP2;P2;SDS_P1;SDS_P2;PMS_P1;PMS_P2;Temp;Humidity;BMP_temperature;BMP_pressure;BME280_temperature;BME280_humidity;BME280_pressure;Samples;Min_cycle;Max_cycle;Signal;HPM_P1;HPM_P2
2023/03/23 00:00:42;;;;;;;1.48;0.77;;;16.70;82.50;;;;;;10063057;28;20021;-63
2023/03/23 00:05:33;;;;;;;1.25;0.73;;;16.70;82.60;;;;;;10063159;28;20029;-63
2023/03/23 00:10:24;;;;;;;2.72;1.17;;;16.70;82.70;;;;;;10064854;28;20037;-61
2023/03/23 00:15:16;;;;;;;0.85;0.82;;;16.80;82.80;;;;;;10063808;28;20540;-62
2023/03/23 00:20:09;;;;;;;1.20;1.08;;;16.70;82.70;;;;;;10062264;28;20058;-61
2023/03/23 00:25:01;;;;;;;1.80;1.40;;;16.60;82.80;;;;;;10063618;28;20037;-61
2023/03/23 00:29:52;;;;;;;2.08;1.10;;;16.50;83.10;;;;;;10062347;28;20025;-61
2023/03/23 00:34:45;;;;;;;4.45;1.75;;;16.50;83.30;;;;;;10059511;28;20033;-60
2023/03/23 00:39:38;;;;;;;2.40;1.17;;;16.50;83.40;;;;;;10064640;28;20033;-61
2023/03/23 00:44:31;;;;;;;2.78;1.30;;;16.50;83.40;;;;;;10063135;28;20064;-62
2023/03/23 00:49:24;;;;;;;2.67;1.30;;;16.40;83.40;;;;;;10060155;28;20079;-60
2023/03/23 00:54:15;;;;;;;2.13;1.10;;;16.50;84.20;;;;;;10071803;28;20044;-61
2023/03/23 00:59:06;;;;;;;1.90;1.25;;;16.40;83.60;;;;;;10061054;28;20419;-62
2023/03/23 01:04:00;;;;;;;2.25;1.23;;;16.50;83.60;;;;;;10060966;28;20029;-60
2023/03/23 01:08:53;;;;;;;1.43;1.13;;;16.40;83.80;;;;;;10062977;28;20021;-62
2023/03/23 01:13:44;;;;;;;2.30;1.33;;;16.30;84.00;;;;;;10061288;28;20590;-60
2023/03/23 01:18:35;;;;;;;1.13;1.00;;;16.20;84.40;;;;;;10059301;28;20303;-63
2023/03/23 01:23:26;;;;;;;2.13;1.27;;;16.20;84.60;;;;;;10065304;28;20072;-61
2023/03/23 01:28:16;;;;;;;1.42;1.27;;;16.20;84.80;;;;;;10059736;28;20056;-61
2023/03/23 01:33:07;;;;;;;1.50;1.38;;;16.20;85.10;;;;;;10060105;28;20123;-61
2023/03/23 01:37:58;;;;;;;1.98;1.17;;;16.20;85.20;;;;;;10067564;28;20519;-61
2023/03/23 01:42:49;;;;;;;2.47;1.23;;;16.20;85.50;;;;;;10063753;28;20381;-61
2023/03/23 01:47:40;;;;;;;2.38;1.33;;;16.20;85.70;;;;;;10059113;28;20056;-63
2023/03/23 01:52:31;;;;;;;1.70;1.20;;;16.10;86.30;;;;;;10046894;28;20100;-62
2023/03/23 01:57:26;;;;;;;2.72;1.10;;;16.10;86.50;;;;;;10038335;28;20223;-62
2023/03/23 02:02:19;;;;;;;1.50;1.40;;;16.10;86.70;;;;;;10063092;28;20083;-61
2023/03/23 02:07:13;;;;;;;2.47;1.23;;;16.10;87.10;;;;;;10048958;28;20087;-61
2023/03/23 02:12:04;;;;;;;1.77;1.33;;;16.00;87.20;;;;;;10048785;28;20159;-61
2023/03/23 02:16:59;;;;;;;2.35;1.40;;;16.00;87.50;;;;;;10064911;28;20569;-62
2023/03/23 02:22:14;;;;;;;2.20;1.35;;;16.10;87.80;;;;;;10056074;28;20439;-61
2023/03/23 02:27:18;;;;;;;2.23;1.37;;;16.00;87.80;;;;;;10051901;28;20523;-62
2023/03/23 02:32:33;;;;;;;1.80;1.40;;;16.00;88.20;;;;;;10053916;28;20106;-59
2023/03/23 02:37:32;;;;;;;2.22;1.30;;;16.00;88.30;;;;;;10043427;28;20260;-60
2023/03/23 02:42:31;;;;;;;1.80;1.15;;;16.00;88.40;;;;;;10046686;28;20124;-60
2023/03/23 02:47:26;;;;;;;3.08;1.30;;;15.90;88.50;;;;;;10060826;28;20033;-61
2023/03/23 02:52:25;;;;;;;1.98;1.30;;;15.90;88.70;;;;;;10055132;28;20466;-60
2023/03/23 02:57:16;;;;;;;2.58;1.30;;;16.00;88.80;;;;;;10055298;28;20041;-60
2023/03/23 03:02:36;;;;;;;2.70;1.33;;;16.00;88.80;;;;;;10062939;28;20025;-61
2023/03/23 03:07:48;;;;;;;2.85;1.42;;;16.00;89.10;;;;;;10063429;28;20083;-61
2023/03/23 03:12:48;;;;;;;4.00;1.38;;;16.00;89.10;;;;;;10062599;28;20037;-61
2023/03/23 03:17:49;;;;;;;1.80;1.15;;;16.00;88.90;;;;;;10062704;28;20049;-60
2023/03/23 03:22:43;;;;;;;2.28;1.42;;;16.00;89.10;;;;;;10062866;28;20021;-60
2023/03/23 03:27:34;;;;;;;3.05;1.20;;;16.00;89.10;;;;;;10066978;28;20053;-60
2023/03/23 03:32:32;;;;;;;2.40;1.65;;;16.00;89.30;;;;;;10061190;28;20180;-60
2023/03/23 03:37:23;;;;;;;2.22;1.70;;;16.00;89.30;;;;;;10061978;28;20373;-60
2023/03/23 03:42:14;;;;;;;2.22;1.60;;;15.90;89.30;;;;;;10065345;28;20244;-59
2023/03/23 03:47:04;;;;;;;2.50;1.15;;;15.90;89.50;;;;;;10061973;28;20033;-64
2023/03/23 03:51:55;;;;;;;2.70;1.40;;;15.80;89.50;;;;;;10061267;28;20025;-61
2023/03/23 03:56:46;;;;;;;2.53;1.42;;;15.80;89.70;;;;;;10061269;28;20098;-59
2023/03/23 04:01:38;;;;;;;2.97;1.20;;;15.80;89.60;;;;;;10060323;28;20013;-60
2023/03/23 04:06:28;;;;;;;2.80;1.35;;;15.80;89.90;;;;;;10052981;28;20396;-60
2023/03/23 04:11:19;;;;;;;2.70;1.42;;;15.80;89.90;;;;;;10057366;28;20046;-60
2023/03/23 04:16:10;;;;;;;2.78;1.33;;;15.80;90.00;;;;;;10058993;28;20099;-60
2023/03/23 04:21:02;;;;;;;1.92;1.30;;;15.80;90.00;;;;;;10059447;28;20021;-61
2023/03/23 04:25:57;;;;;;;1.90;1.25;;;15.80;89.90;;;;;;10059844;28;20045;-60
2023/03/23 04:30:48;;;;;;;1.95;1.17;;;15.80;90.00;;;;;;10058268;28;20053;-59
2023/03/23 04:35:39;;;;;;;1.55;1.08;;;15.80;90.00;;;;;;10060058;28;20053;-61
2023/03/23 04:40:30;;;;;;;2.88;1.40;;;15.80;90.00;;;;;;10060343;28;20020;-60
2023/03/23 04:45:21;;;;;;;1.63;1.10;;;15.80;90.00;;;;;;10063467;28;20045;-60
2023/03/23 04:50:12;;;;;;;1.95;1.27;;;15.70;90.10;;;;;;10062394;28;20056;-59
2023/03/23 04:55:08;;;;;;;1.88;1.10;;;15.60;90.10;;;;;;10061046;28;20115;-61
2023/03/23 05:00:00;;;;;;;2.22;1.23;;;15.80;90.10;;;;;;10058267;28;20172;-60
2023/03/23 05:04:50;;;;;;;2.20;1.63;;;15.70;90.10;;;;;;10050628;28;20065;-61
2023/03/23 05:09:41;;;;;;;2.58;1.45;;;15.70;90.20;;;;;;10050152;28;20037;-60
2023/03/23 05:14:32;;;;;;;3.80;1.27;;;15.70;90.20;;;;;;10053132;28;20124;-59
2023/03/23 05:19:22;;;;;;;1.98;1.17;;;15.70;90.20;;;;;;10052069;28;20706;-60
2023/03/23 05:24:13;;;;;;;3.72;1.33;;;15.60;90.30;;;;;;10057725;28;20590;-61
2023/03/23 05:29:04;;;;;;;1.98;1.25;;;15.50;90.40;;;;;;10057350;28;20072;-61
2023/03/23 05:33:54;;;;;;;2.78;1.80;;;15.50;90.50;;;;;;10059134;28;20124;-59
2023/03/23 05:38:47;;;;;;;3.83;1.63;;;15.50;90.60;;;;;;10057322;28;20033;-60
2023/03/23 05:43:38;;;;;;;2.85;1.65;;;15.50;90.70;;;;;;10057472;28;20108;-61
2023/03/23 05:48:28;;;;;;;3.15;1.80;;;15.60;90.80;;;;;;10056482;28;20112;-63
2023/03/23 05:53:19;;;;;;;3.97;1.90;;;15.40;91.00;;;;;;10055120;28;20056;-60
2023/03/23 05:58:10;;;;;;;2.15;1.52;;;15.40;91.20;;;;;;10056419;28;20036;-63
2023/03/23 06:03:02;;;;;;;5.22;1.80;;;15.50;91.30;;;;;;10054697;28;20033;-60
2023/03/23 06:07:53;;;;;;;1.75;1.45;;;15.40;91.50;;;;;;10042259;28;20052;-60
2023/03/23 06:12:44;;;;;;;2.38;1.15;;;15.50;91.60;;;;;;10054405;28;20033;-61
2023/03/23 06:17:36;;;;;;;3.53;1.83;;;15.40;91.80;;;;;;10055614;28;20038;-61
2023/03/23 06:22:26;;;;;;;2.83;2.15;;;15.40;91.90;;;;;;10054031;28;20069;-61
2023/03/23 06:27:17;;;;;;;3.22;1.73;;;15.40;92.00;;;;;;10054531;28;20514;-60
2023/03/23 06:32:12;;;;;;;4.30;2.45;;;15.40;92.10;;;;;;10059206;28;20570;-59
2023/03/23 06:37:02;;;;;;;4.10;1.70;;;15.40;92.30;;;;;;10064602;28;20041;-61
2023/03/23 06:41:53;;;;;;;2.42;1.58;;;15.50;92.30;;;;;;10064429;28;20365;-61
2023/03/23 06:46:44;;;;;;;2.70;1.83;;;15.40;92.40;;;;;;10066851;28;20040;-59
2023/03/23 06:51:35;;;;;;;3.63;1.60;;;15.50;92.60;;;;;;10063586;28;20478;-60
2023/03/23 06:56:26;;;;;;;3.55;1.25;;;15.50;92.60;;;;;;10063588;28;20196;-61
2023/03/23 07:01:19;;;;;;;3.05;1.70;;;15.60;92.70;;;;;;10058188;28;20264;-66
2023/03/23 07:06:10;;;;;;;2.80;1.85;;;15.60;92.80;;;;;;10062291;28;20025;-61
2023/03/23 07:11:01;;;;;;;3.28;1.17;;;15.70;92.90;;;;;;10062501;28;20046;-60
2023/03/23 07:15:52;;;;;;;2.25;1.00;;;15.70;92.90;;;;;;10062218;28;20049;-60
2023/03/23 07:20:49;;;;;;;1.83;1.17;;;15.80;93.00;;;;;;10061645;28;20027;-61
2023/03/23 07:25:40;;;;;;;1.75;1.45;;;15.80;93.00;;;;;;10055815;28;20041;-60
2023/03/23 07:30:31;;;;;;;2.67;1.58;;;15.90;93.10;;;;;;10052878;28;20509;-61
2023/03/23 07:35:22;;;;;;;2.88;0.88;;;15.90;93.20;;;;;;10051331;28;20037;-60
2023/03/23 07:40:16;;;;;;;1.42;0.80;;;15.90;93.40;;;;;;10053136;28;20068;-59
2023/03/23 07:45:07;;;;;;;2.75;1.08;;;15.90;93.60;;;;;;10046555;28;20396;-62
2023/03/23 07:49:57;;;;;;;5.70;1.05;;;15.90;93.60;;;;;;10043090;28;20026;-60
2023/03/23 07:54:48;;;;;;;1.33;0.90;;;16.00;93.80;;;;;;10049373;28;20041;-62
2023/03/23 07:59:39;;;;;;;1.75;1.10;;;16.00;93.90;;;;;;10057397;28;20080;-61
2023/03/23 08:04:29;;;;;;;1.15;0.80;;;16.10;94.30;;;;;;10048687;28;20025;-62
2023/03/23 08:09:20;;;;;;;1.52;1.13;;;16.10;94.20;;;;;;10053329;28;20033;-60
2023/03/23 08:14:11;;;;;;;1.25;1.13;;;16.30;94.10;;;;;;10048860;28;20657;-62
2023/03/23 08:19:02;;;;;;;2.72;1.27;;;16.40;94.10;;;;;;10043641;28;20025;-62
2023/03/23 08:23:53;;;;;;;1.30;1.10;;;16.60;94.10;;;;;;10057559;28;20147;-61
2023/03/23 08:28:44;;;;;;;2.55;1.15;;;16.60;94.20;;;;;;10045362;28;20089;-60
2023/03/23 08:33:35;;;;;;;1.75;1.20;;;16.50;94.20;;;;;;10043757;28;20475;-61
2023/03/23 08:38:27;;;;;;;2.35;1.10;;;16.40;94.40;;;;;;10037281;28;20096;-61
2023/03/23 08:43:18;;;;;;;2.03;0.90;;;16.20;94.40;;;;;;10058274;28;20013;-63
2023/03/23 08:48:09;;;;;;;2.08;1.10;;;16.30;94.50;;;;;;10055741;28;20037;-61
2023/03/23 08:53:00;;;;;;;2.60;1.35;;;16.40;94.40;;;;;;10056328;28;20103;-61
2023/03/23 08:57:51;;;;;;;2.28;1.73;;;16.50;94.40;;;;;;10051877;28;20034;-61
2023/03/23 09:02:43;;;;;;;1.63;1.08;;;16.60;94.40;;;;;;10052769;28;20021;-62
2023/03/23 09:07:35;;;;;;;2.88;1.15;;;16.50;94.40;;;;;;10060835;28;20208;-60
2023/03/23 09:12:25;;;;;;;4.15;1.58;;;16.60;94.40;;;;;;10058449;28;20033;-61
2023/03/23 09:17:16;;;;;;;2.05;1.40;;;16.70;94.40;;;;;;10059554;28;20033;-60
2023/03/23 09:22:07;;;;;;;1.70;1.30;;;16.70;94.30;;;;;;10055379;28;20159;-61
2023/03/23 09:26:58;;;;;;;2.55;1.08;;;16.70;94.20;;;;;;10046349;28;20500;-62
2023/03/23 09:31:49;;;;;;;1.50;0.80;;;16.70;94.30;;;;;;10045751;28;20135;-61
2023/03/23 09:36:40;;;;;;;1.63;1.00;;;16.70;94.30;;;;;;10043257;28;20525;-64
2023/03/23 09:41:58;;;;;;;1.80;1.35;;;16.80;94.20;;;;;;10027886;28;20029;-66
2023/03/23 09:47:02;;;;;;;1.33;1.20;;;16.80;94.30;;;;;;10023274;28;20167;-65
2023/03/23 09:52:00;;;;;;;4.38;1.67;;;16.80;94.20;;;;;;10051874;28;20025;-67
2023/03/23 09:56:51;;;;;;;4.88;2.25;;;16.80;94.40;;;;;;10045265;28;20093;-67
2023/03/23 10:01:55;;;;;;;3.83;1.70;;;16.80;94.20;;;;;;10042921;28;20064;-70
2023/03/23 10:06:47;;;;;;;3.90;1.23;;;16.70;94.20;;;;;;10052759;28;20227;-70
2023/03/23 10:12:07;;;;;;;1.75;1.20;;;16.70;94.30;;;;;;10054779;28;20302;-69
2023/03/23 10:17:03;;;;;;;2.35;1.13;;;16.70;94.30;;;;;;10052840;28;20503;-70
2023/03/23 10:22:03;;;;;;;2.55;1.20;;;16.90;94.30;;;;;;10053646;28;20017;-70
2023/03/23 10:27:06;;;;;;;1.92;1.42;;;17.00;94.30;;;;;;10045762;28;20451;-70
2023/03/23 10:32:21;;;;;;;5.00;2.08;;;17.20;94.10;;;;;;10057834;28;20024;-69
2023/03/23 10:37:25;;;;;;;3.90;2.00;;;17.50;94.10;;;;;;10051625;28;20049;-68
2023/03/23 10:42:42;;;;;;;4.07;1.23;;;17.80;93.80;;;;;;10039147;28;20061;-71
2023/03/23 10:47:37;;;;;;;2.50;1.30;;;17.90;93.80;;;;;;10042731;28;20500;-67
2023/03/23 10:52:35;;;;;;;2.22;1.17;;;17.70;93.90;;;;;;10045205;28;20534;-67
2023/03/23 10:57:28;;;;;;;2.25;1.17;;;17.80;93.90;;;;;;10042097;28;20422;-69
2023/03/23 11:02:24;;;;;;;4.15;1.02;;;18.00;93.70;;;;;;10058939;28;20472;-72
2023/03/23 11:07:28;;;;;;;3.33;1.50;;;18.30;93.60;;;;;;10046696;28;20412;-68
2023/03/23 11:12:20;;;;;;;2.38;1.55;;;18.40;93.30;;;;;;10042886;28;20096;-68
2023/03/23 11:17:24;;;;;;;3.30;1.35;;;18.40;93.30;;;;;;10048678;28;20053;-69
2023/03/23 11:22:36;;;;;;;4.28;1.77;;;18.40;93.10;;;;;;10049120;28;20022;-68
2023/03/23 11:27:28;;;;;;;3.90;1.98;;;18.40;93.10;;;;;;10061375;28;20056;-65
2023/03/23 11:32:22;;;;;;;2.90;1.70;;;18.50;93.20;;;;;;10062169;28;20262;-68
2023/03/23 11:37:40;;;;;;;5.23;2.70;;;18.30;93.30;;;;;;10064000;28;20076;-72
2023/03/23 11:42:44;;;;;;;5.32;1.90;;;18.40;93.30;;;;;;10061050;28;20272;-67
2023/03/23 11:47:44;;;;;;;2.95;1.50;;;18.10;93.50;;;;;;10062035;28;20499;-66
2023/03/23 11:52:59;;;;;;;3.40;1.45;;;18.00;93.60;;;;;;10060418;28;20065;-66
2023/03/23 11:57:49;;;;;;;1.75;1.23;;;18.00;93.70;;;;;;10060303;28;20036;-66
2023/03/23 12:03:18;;;;;;;3.60;1.90;;;18.20;93.50;;;;;;10060757;28;20088;-68
2023/03/23 12:08:53;;;;;;;2.33;1.45;;;18.20;93.60;;;;;;10056543;28;20139;-68
2023/03/23 12:14:20;;;;;;;2.73;1.30;;;18.30;93.50;;;;;;10035283;28;20053;-68
2023/03/23 12:19:26;;;;;;;3.47;1.52;;;18.50;93.50;;;;;;10048681;28;20551;-72
2023/03/23 12:24:29;;;;;;;1.90;1.60;;;18.60;93.50;;;;;;10051096;28;20026;-73
2023/03/23 12:29:39;;;;;;;1.45;1.00;;;18.60;93.30;;;;;;10045626;28;20579;-76
2023/03/23 12:34:47;;;;;;;2.70;1.90;;;18.60;93.20;;;;;;10056800;28;20455;-73
2023/03/23 12:39:57;;;;;;;1.80;1.20;;;18.60;93.10;;;;;;10055793;28;20048;-72
2023/03/23 12:44:53;;;;;;;1.30;1.20;;;18.50;93.00;;;;;;10055175;28;20030;-65
2023/03/23 12:49:50;;;;;;;4.53;1.83;;;18.70;92.80;;;;;;10054869;28;20092;-68
2023/03/23 12:55:14;;;;;;;1.80;1.20;;;18.80;92.70;;;;;;10060845;28;20131;-67
2023/03/23 13:00:25;;;;;;;2.00;1.35;;;19.00;92.40;;;;;;10054179;28;20021;-68
2023/03/23 13:05:23;;;;;;;8.38;1.40;;;19.00;92.20;;;;;;10044827;28;20030;-69
2023/03/23 13:10:22;;;;;;;3.42;2.08;;;19.00;92.40;;;;;;10033053;28;20045;-68
2023/03/23 13:15:47;;;;;;;2.17;1.23;;;19.10;92.30;;;;;;10039883;28;20033;-68
2023/03/23 13:20:50;;;;;;;2.75;1.63;;;19.10;92.00;;;;;;10029001;28;20099;-68
2023/03/23 13:26:05;;;;;;;2.67;1.70;;;19.10;92.00;;;;;;10036456;28;20534;-69
2023/03/23 13:31:00;;;;;;;1.70;1.20;;;19.30;91.80;;;;;;10031965;28;20048;-71
2023/03/23 13:35:51;;;;;;;2.20;1.50;;;19.20;92.00;;;;;;10026419;28;20045;-66
2023/03/23 13:40:44;;;;;;;2.17;1.05;;;18.90;91.90;;;;;;10051397;28;20029;-66
2023/03/23 13:45:47;;;;;;;1.27;1.00;;;18.80;91.90;;;;;;10030795;28;20032;-68
2023/03/23 13:50:57;;;;;;;3.15;1.30;;;18.70;91.90;;;;;;10038718;28;20025;-68
2023/03/23 13:55:52;;;;;;;2.35;1.30;;;18.90;91.70;;;;;;10049388;28;20068;-65
2023/03/23 14:00:50;;;;;;;2.47;1.20;;;18.90;91.70;;;;;;10050028;28;20064;-69
2023/03/23 14:05:49;;;;;;;2.70;1.33;;;19.10;91.70;;;;;;10055362;28;20138;-69
2023/03/23 14:10:42;;;;;;;3.42;1.40;;;19.20;91.70;;;;;;10050697;28;20350;-69
2023/03/23 14:15:43;;;;;;;3.70;1.58;;;19.10;91.70;;;;;;10049191;28;20037;-63
2023/03/23 14:20:39;;;;;;;5.07;1.55;;;19.10;91.80;;;;;;10051634;28;20030;-72
2023/03/23 14:25:31;;;;;;;2.00;1.42;;;19.10;91.80;;;;;;10056121;28;20049;-69
2023/03/23 14:30:29;;;;;;;3.65;1.23;;;19.10;91.80;;;;;;10047266;28;20040;-67
2023/03/23 14:35:26;;;;;;;2.25;1.60;;;19.10;91.80;;;;;;10051517;28;20069;-67
2023/03/23 14:40:18;;;;;;;3.35;1.52;;;19.10;91.90;;;;;;10045248;28;20037;-68
2023/03/23 14:45:18;;;;;;;2.53;1.55;;;19.30;91.80;;;;;;10057011;28;20036;-66
2023/03/23 14:50:28;;;;;;;7.35;3.38;;;19.30;91.90;;;;;;10051858;28;20426;-62
2023/03/23 14:55:21;;;;;;;5.63;3.55;;;19.40;91.80;;;;;;10056420;28;20045;-67
2023/03/23 15:00:19;;;;;;;3.65;2.10;;;19.60;91.70;;;;;;10058259;28;20037;-62
2023/03/23 15:05:14;;;;;;;6.85;2.35;;;19.60;91.80;;;;;;10058545;28;20075;-62
2023/03/23 15:10:07;;;;;;;2.28;1.52;;;19.60;91.90;;;;;;10062786;28;20499;-59
2023/03/23 15:15:05;;;;;;;5.57;2.72;;;19.60;91.90;;;;;;10065177;28;20392;-67
2023/03/23 15:19:58;;;;;;;2.50;1.50;;;19.40;91.80;;;;;;10061829;28;20140;-73
2023/03/23 15:24:50;;;;;;;5.47;1.60;;;19.30;91.60;;;;;;10062702;28;20050;-67
2023/03/23 15:29:52;;;;;;;3.33;1.25;;;19.40;91.40;;;;;;10062324;28;20069;-67
2023/03/23 15:34:45;;;;;;;2.90;1.55;;;19.30;91.10;;;;;;10063203;28;20060;-67
2023/03/23 15:39:41;;;;;;;2.33;1.40;;;19.30;91.00;;;;;;10062727;28;20594;-67
2023/03/23 15:44:34;;;;;;;2.85;1.15;;;19.30;90.70;;;;;;10062587;28;20129;-68
2023/03/23 15:49:25;;;;;;;2.00;1.23;;;19.30;90.50;;;;;;10061846;28;20072;-71
2023/03/23 15:54:16;;;;;;;1.70;1.10;;;19.30;90.40;;;;;;10061774;28;20049;-68
2023/03/23 15:59:08;;;;;;;4.88;1.58;;;19.30;90.30;;;;;;10060657;28;20029;-74
2023/03/23 16:04:04;;;;;;;2.33;1.35;;;19.30;90.20;;;;;;10057822;28;20080;-66
2023/03/23 16:08:55;;;;;;;1.73;1.63;;;19.20;90.20;;;;;;10059692;28;20025;-66
2023/03/23 16:13:46;;;;;;;2.17;1.20;;;19.10;90.10;;;;;;10060980;28;20392;-68
2023/03/23 16:18:37;;;;;;;6.60;1.40;;;19.00;90.10;;;;;;10060420;28;20432;-67
2023/03/23 16:23:27;;;;;;;1.90;1.42;;;18.80;90.20;;;;;;10061022;28;20357;-65
2023/03/23 16:28:21;;;;;;;1.20;1.00;;;18.70;90.40;;;;;;10060493;28;20049;-65
2023/03/23 16:33:12;;;;;;;3.00;1.20;;;18.60;90.60;;;;;;10060799;28;20037;-69
2023/03/23 16:38:02;;;;;;;3.80;1.30;;;18.50;90.70;;;;;;10059923;28;20025;-64
2023/03/23 16:42:53;;;;;;;3.03;1.50;;;18.50;91.00;;;;;;10059718;28;20101;-67
2023/03/23 16:47:45;;;;;;;3.67;1.52;;;18.40;90.80;;;;;;10060145;28;20026;-68
2023/03/23 16:52:36;;;;;;;2.92;2.65;;;18.40;90.80;;;;;;10058670;28;20053;-67
2023/03/23 16:57:27;;;;;;;4.85;4.18;;;18.30;90.80;;;;;;10060794;28;20061;-68
2023/03/23 17:02:18;;;;;;;9.45;4.05;;;18.30;90.80;;;;;;10059525;28;20021;-68
2023/03/23 17:07:09;;;;;;;4.60;3.20;;;18.30;90.80;;;;;;10056178;28;20037;-65
2023/03/23 17:12:00;;;;;;;14.15;6.72;;;18.30;90.70;;;;;;10058810;28;20024;-66
2023/03/23 17:16:50;;;;;;;8.63;3.17;;;18.30;90.70;;;;;;10058005;28;20091;-66
2023/03/23 17:21:41;;;;;;;2.28;1.90;;;18.20;90.70;;;;;;10059138;28;20060;-65
2023/03/23 17:26:32;;;;;;;5.43;1.90;;;18.20;90.70;;;;;;10059308;28;20096;-69
2023/03/23 17:31:23;;;;;;;2.30;1.75;;;18.10;90.70;;;;;;10058387;28;20134;-64
2023/03/23 17:36:14;;;;;;;4.22;1.60;;;18.00;90.70;;;;;;10054157;28;20081;-69
2023/03/23 17:41:06;;;;;;;2.15;1.52;;;18.00;90.60;;;;;;10057625;28;20017;-70
2023/03/23 17:45:57;;;;;;;2.22;1.40;;;17.90;90.70;;;;;;10057864;28;20025;-70
2023/03/23 17:50:48;;;;;;;3.08;1.33;;;17.90;90.60;;;;;;10056837;28;20029;-69
2023/03/23 17:55:41;;;;;;;2.30;1.60;;;17.90;90.60;;;;;;10052517;28;20531;-70
2023/03/23 18:00:32;;;;;;;3.10;1.63;;;17.90;90.60;;;;;;10055204;28;20407;-70
2023/03/23 18:05:26;;;;;;;3.38;1.63;;;17.90;90.60;;;;;;10053558;28;20061;-70
2023/03/23 18:10:17;;;;;;;8.10;1.52;;;17.80;90.60;;;;;;10054794;28;20496;-70
2023/03/23 18:15:09;;;;;;;2.85;1.70;;;17.80;90.60;;;;;;10051531;28;20036;-73
2023/03/23 18:20:00;;;;;;;2.97;1.70;;;17.80;90.70;;;;;;10046979;28;20400;-70
2023/03/23 18:24:50;;;;;;;1.77;1.40;;;17.80;90.60;;;;;;10048602;28;20052;-73
2023/03/23 18:29:41;;;;;;;2.15;1.67;;;17.80;90.60;;;;;;10052242;28;20045;-71
2023/03/23 18:34:32;;;;;;;2.53;1.40;;;17.80;90.60;;;;;;10052973;28;20084;-69
2023/03/23 18:39:22;;;;;;;3.33;1.92;;;17.80;90.60;;;;;;10049075;28;20485;-69
2023/03/23 18:44:13;;;;;;;1.70;1.58;;;17.80;90.60;;;;;;10039426;28;20030;-68
2023/03/23 18:49:04;;;;;;;2.65;1.73;;;17.70;90.70;;;;;;10037876;28;20507;-67
2023/03/23 18:53:54;;;;;;;3.00;1.65;;;17.70;90.70;;;;;;10051255;28;20511;-68
2023/03/23 18:58:45;;;;;;;4.35;1.45;;;17.70;90.70;;;;;;10045479;28;20029;-66
2023/03/23 19:03:37;;;;;;;3.33;2.08;;;17.70;90.70;;;;;;10047218;28;20045;-69
2023/03/23 19:08:29;;;;;;;3.42;1.95;;;17.70;90.70;;;;;;10042671;28;20084;-68
2023/03/23 19:13:19;;;;;;;6.55;1.67;;;17.70;90.70;;;;;;10049205;28;20137;-68
2023/03/23 19:18:10;;;;;;;3.45;1.80;;;17.60;90.70;;;;;;10047636;28;20026;-66
2023/03/23 19:23:01;;;;;;;3.88;1.83;;;17.70;90.70;;;;;;10044273;28;20026;-67
2023/03/23 19:27:52;;;;;;;3.53;2.10;;;17.70;90.70;;;;;;10038573;28;20096;-65
2023/03/23 19:32:42;;;;;;;2.53;1.73;;;17.60;90.70;;;;;;10041194;28;20025;-66
2023/03/23 19:37:33;;;;;;;3.70;1.70;;;17.50;90.70;;;;;;10017685;28;20095;-67
2023/03/23 19:42:24;;;;;;;2.72;1.52;;;17.50;90.70;;;;;;10022848;28;20030;-67
2023/03/23 19:47:15;;;;;;;3.72;1.88;;;17.50;90.70;;;;;;10024386;28;20026;-65
2023/03/23 19:52:07;;;;;;;3.03;1.70;;;17.40;90.70;;;;;;10026995;28;20477;-66
2023/03/23 19:56:58;;;;;;;4.88;1.90;;;17.40;90.70;;;;;;10024846;28;21821;-67
2023/03/23 20:01:50;;;;;;;2.42;1.42;;;17.40;90.80;;;;;;10030704;28;20053;-67
2023/03/23 20:06:41;;;;;;;2.05;1.45;;;17.40;90.80;;;;;;10057440;28;20353;-67
2023/03/23 20:11:32;;;;;;;2.70;1.52;;;17.40;90.80;;;;;;10063498;28;20033;-65
2023/03/23 20:16:23;;;;;;;2.03;1.65;;;17.30;90.90;;;;;;10065896;28;20444;-67
2023/03/23 20:21:21;;;;;;;3.35;2.25;;;17.30;90.90;;;;;;10059240;28;20468;-64
2023/03/23 20:26:21;;;;;;;3.30;2.33;;;17.30;90.90;;;;;;10064727;28;20120;-65
2023/03/23 20:31:24;;;;;;;1.92;1.50;;;17.30;90.90;;;;;;10057210;28;20032;-68
2023/03/23 20:36:18;;;;;;;3.40;1.70;;;17.20;90.90;;;;;;10059570;28;20052;-76
2023/03/23 20:41:11;;;;;;;4.47;1.90;;;17.20;90.90;;;;;;10059799;28;20292;-71
2023/03/23 20:46:03;;;;;;;3.38;1.50;;;17.20;91.00;;;;;;10055008;28;20305;-68
2023/03/23 20:50:54;;;;;;;2.35;2.10;;;17.20;91.00;;;;;;10050325;28;20088;-74
2023/03/23 20:55:45;;;;;;;2.88;1.60;;;17.20;91.00;;;;;;10053869;28;20388;-67
2023/03/23 21:00:38;;;;;;;2.83;1.67;;;17.20;91.10;;;;;;10058516;28;20428;-66
2023/03/23 21:05:28;;;;;;;3.28;1.92;;;17.20;91.10;;;;;;10059329;28;20033;-69
2023/03/23 21:10:21;;;;;;;2.67;1.58;;;17.10;91.10;;;;;;10058937;28;20415;-69
2023/03/23 21:15:12;;;;;;;1.88;1.67;;;17.10;91.10;;;;;;10059105;28;20029;-68
2023/03/23 21:20:03;;;;;;;3.83;2.03;;;17.10;91.10;;;;;;10062436;28;20396;-68
2023/03/23 21:24:54;;;;;;;3.95;2.00;;;17.10;91.10;;;;;;10063346;28;20534;-65
2023/03/23 21:29:45;;;;;;;4.07;1.95;;;17.10;91.20;;;;;;10058798;28;20029;-68
2023/03/23 21:34:36;;;;;;;2.92;1.70;;;17.00;91.20;;;;;;10067213;28;20605;-69
2023/03/23 21:39:27;;;;;;;3.75;1.95;;;17.00;91.30;;;;;;10057770;28;20108;-68
2023/03/23 21:44:18;;;;;;;2.47;1.88;;;17.00;91.40;;;;;;10056915;28;20104;-70
2023/03/23 21:49:12;;;;;;;2.85;2.13;;;17.00;91.40;;;;;;10062765;28;20025;-69
2023/03/23 21:54:04;;;;;;;4.18;1.77;;;17.10;91.40;;;;;;10048415;28;20030;-70
2023/03/23 21:58:55;;;;;;;3.17;2.13;;;17.00;91.50;;;;;;10040769;28;20132;-67
2023/03/23 22:03:46;;;;;;;8.43;2.30;;;17.00;91.60;;;;;;10047200;28;20037;-68
2023/03/23 22:08:39;;;;;;;2.65;1.85;;;17.00;91.60;;;;;;10054984;28;20033;-67
2023/03/23 22:13:31;;;;;;;3.78;2.03;;;17.00;91.70;;;;;;10056722;28;20037;-68
2023/03/23 22:18:22;;;;;;;2.47;2.10;;;16.90;91.70;;;;;;10057087;28;20025;-68
2023/03/23 22:23:13;;;;;;;3.83;1.88;;;16.90;91.80;;;;;;10059555;28;20052;-67
2023/03/23 22:28:04;;;;;;;3.55;2.22;;;16.90;91.90;;;;;;10065687;28;20049;-66
2023/03/23 22:32:56;;;;;;;6.40;2.70;;;16.80;92.00;;;;;;10055165;28;20037;-68
2023/03/23 22:37:47;;;;;;;3.17;2.22;;;16.80;92.10;;;;;;10058336;28;20041;-68
2023/03/23 22:42:37;;;;;;;4.20;2.10;;;16.70;92.20;;;;;;10058509;28;20404;-70
2023/03/23 22:47:28;;;;;;;3.75;1.88;;;16.70;92.40;;;;;;10058782;28;20021;-67
2023/03/23 22:52:19;;;;;;;4.25;2.30;;;16.70;92.50;;;;;;10058469;28;20069;-69
2023/03/23 22:57:09;;;;;;;3.00;2.08;;;16.70;92.50;;;;;;10057866;28;20038;-68
2023/03/23 23:02:00;;;;;;;5.60;1.92;;;16.70;92.60;;;;;;10062741;28;20026;-67
2023/03/23 23:06:52;;;;;;;3.05;1.67;;;16.60;92.70;;;;;;10057031;28;20029;-70
2023/03/23 23:11:42;;;;;;;2.63;1.90;;;16.70;92.80;;;;;;10056629;28;20049;-67
2023/03/23 23:16:34;;;;;;;4.13;2.20;;;16.60;92.80;;;;;;10062395;28;20037;-68
2023/03/23 23:21:25;;;;;;;4.15;2.60;;;16.60;92.90;;;;;;10065726;28;20492;-69
2023/03/23 23:26:17;;;;;;;3.28;1.95;;;16.50;93.00;;;;;;10074459;28;20476;-68
2023/03/23 23:31:30;;;;;;;4.40;2.78;;;16.60;93.00;;;;;;10057853;28;20459;-69
2023/03/23 23:36:21;;;;;;;3.13;1.95;;;16.50;93.10;;;;;;10064041;28;20357;-69
2023/03/23 23:41:12;;;;;;;4.45;3.08;;;16.60;93.00;;;;;;10064409;28;20160;-68
2023/03/23 23:46:03;;;;;;;2.92;1.95;;;16.60;93.00;;;;;;10063117;28;20503;-68
2023/03/23 23:50:56;;;;;;;2.80;1.92;;;16.50;93.10;;;;;;10064646;28;20029;-70
2023/03/23 23:55:47;;;;;;;2.75;2.15;;;16.50;93.20;;;;;;10064510;28;20603;-68
